Time;durP1;ratioP1;P1;durP2;ratioP2;P2;SDS_P1;SDS_P2;PMS_P1;PMS_P2;Temp;Humidity;BMP_temperature;BMP_pressure;BME280_temperature;BME280_humidity;BME280_pressure;Samples;Min_cycle;Max_cycle;Signal;HPM_P1;HPM_P2
2024/04/12 00:02:05;;;;;;;17.23;12.57;;;;;;;13.71;83.22;102001.66;11217324;26;20017;-76
2024/04/12 00:07:13;;;;;;;17.15;12.57;;;;;;;13.72;83.52;101997.13;11236818;26;20473;-75
2024/04/12 00:12:19;;;;;;;23.83;12.70;;;;;;;13.71;83.72;102000.78;11216772;26;20008;-76
2024/04/12 00:17:21;;;;;;;18.13;12.63;;;;;;;13.70;83.85;101999.06;11230070;26;20037;-76
2024/04/12 00:22:24;;;;;;;17.63;12.70;;;;;;;13.74;83.92;101987.09;11231164;26;20004;-76
2024/04/12 00:27:26;;;;;;;17.52;12.48;;;;;;;13.76;83.79;101976.16;11241246;26;20014;-76
2024/04/12 00:32:27;;;;;;;17.65;12.85;;;;;;;13.78;83.68;101968.81;11234496;26;20014;-76
2024/04/12 00:37:33;;;;;;;17.88;12.25;;;;;;;13.79;83.63;101952.50;11198568;26;20014;-76
2024/04/12 00:42:35;;;;;;;18.90;11.52;;;;;;;13.75;83.79;101939.31;11244128;26;20405;-76
2024/04/12 00:47:37;;;;;;;15.90;12.57;;;;;;;13.70;84.18;101939.63;11224536;26;20015;-76
2024/04/12 00:52:43;;;;;;;18.85;11.43;;;;;;;13.65;84.19;101955.28;11229594;26;20079;-76
2024/04/12 00:57:45;;;;;;;16.98;11.60;;;;;;;13.58;84.00;101954.00;11231921;26;20379;-76
2024/04/12 01:02:48;;;;;;;14.18;11.40;;;;;;;13.63;84.08;101947.31;11238565;26;20014;-76
2024/04/12 01:07:55;;;;;;;18.42;11.93;;;;;;;13.58;83.91;101954.00;11224748;26;20018;-76
2024/04/12 01:13:02;;;;;;;18.50;12.38;;;;;;;13.57;83.46;101963.91;11213396;26;19999;-76
2024/04/12 01:18:11;;;;;;;17.85;13.50;;;;;;;13.64;83.65;101956.28;11240523;26;20123;-76
2024/04/12 01:23:16;;;;;;;19.60;12.52;;;;;;;13.47;83.31;101950.19;11229340;26;20011;-77
2024/04/12 01:28:19;;;;;;;18.27;11.75;;;;;;;13.58;82.29;101948.59;11228481;26;20007;-76
2024/04/12 01:33:21;;;;;;;;;;;;;;;13.75;81.77;101936.63;11247158;26;20084;-76
2024/04/12 01:38:23;;;;;;;27.75;12.30;;;;;;;13.69;81.51;101938.78;11262628;26;20405;-75
2024/04/12 01:43:26;;;;;;;16.90;12.32;;;;;;;13.80;80.88;101940.72;11236616;26;19999;-76
2024/04/12 01:48:29;;;;;;;17.80;10.95;;;;;;;13.84;80.71;101944.06;11227649;26;20011;-76
2024/04/12 01:53:37;;;;;;;19.65;12.23;;;;;;;13.76;81.63;101949.16;11239414;26;20002;-76
2024/04/12 01:58:40;;;;;;;19.15;11.85;;;;;;;13.73;81.49;101941.25;11226731;26;20023;-76
2024/04/12 02:03:43;;;;;;;16.55;11.70;;;;;;;13.75;81.33;101933.94;11256373;26;20007;-75
2024/04/12 02:08:45;;;;;;;20.63;13.38;;;;;;;13.55;82.32;101929.88;11245585;26;20004;-76
2024/04/12 02:13:47;;;;;;;27.73;15.48;;;;;;;13.47;82.34;101920.50;11226045;26;20035;-76
2024/04/12 02:18:49;;;;;;;27.73;14.15;;;;;;;13.60;81.47;101911.53;11232558;26;20461;-76
2024/04/12 02:23:52;;;;;;;26.52;15.07;;;;;;;13.58;81.85;101900.00;11234830;26;20381;-76
2024/04/12 02:28:59;;;;;;;29.83;17.25;;;;;;;13.78;80.79;101901.28;11268568;26;20449;-75
2024/04/12 02:34:02;;;;;;;28.48;14.95;;;;;;;13.78;80.82;101899.44;11235683;26;20014;-76
2024/04/12 02:39:08;;;;;;;29.35;15.38;;;;;;;13.72;81.17;101910.69;11238525;26;19999;-76
2024/04/12 02:44:10;;;;;;;31.08;15.68;;;;;;;13.52;81.65;101913.91;11209382;26;20011;-76
2024/04/12 02:49:12;;;;;;;21.58;13.27;;;;;;;13.70;81.52;101918.03;11224121;26;19996;-76
2024/04/12 02:54:14;;;;;;;21.50;12.85;;;;;;;13.67;81.95;101908.31;11232896;26;20038;-76
2024/04/12 02:59:16;;;;;;;24.42;13.35;;;;;;;13.40;83.12;101899.44;11222678;26;20382;-76
2024/04/12 03:04:19;;;;;;;21.83;13.50;;;;;;;13.58;82.09;101889.22;11234432;26;20012;-75
2024/04/12 03:09:21;;;;;;;24.48;14.20;;;;;;;13.58;81.55;101883.81;11224361;26;20256;-76
2024/04/12 03:14:24;;;;;;;24.95;13.57;;;;;;;13.50;82.18;101881.63;11215493;26;20015;-75
2024/04/12 03:19:27;;;;;;;22.23;13.90;;;;;;;13.45;82.45;101868.44;11239563;26;20014;-76
2024/04/12 03:24:29;;;;;;;27.23;14.73;;;;;;;13.54;82.36;101876.88;11238114;26;20007;-75
2024/04/12 03:29:31;;;;;;;28.17;15.82;;;;;;;13.59;82.17;101888.22;11249675;26;20478;-75
2024/04/12 03:34:36;;;;;;;27.23;16.52;;;;;;;13.47;81.96;101874.63;11258003;26;20084;-76
2024/04/12 03:39:38;;;;;;;26.63;17.00;;;;;;;13.53;81.36;101880.56;11254426;26;20338;-76
2024/04/12 03:44:42;;;;;;;;;;;;;;;13.41;82.43;101882.25;11231775;26;20004;-76
2024/04/12 03:49:44;;;;;;;25.13;17.60;;;;;;;13.46;82.38;101880.97;11240177;26;20352;-75
2024/04/12 03:54:46;;;;;;;24.05;15.65;;;;;;;13.37;82.37;101884.31;11235138;26;20087;-76
2024/04/12 03:59:57;;;;;;;25.05;15.43;;;;;;;13.41;81.85;101882.25;11221807;26;20129;-76
2024/04/12 04:05:13;;;;;;;24.42;16.15;;;;;;;13.34;82.41;101872.84;11256521;26;20080;-76
2024/04/12 04:10:20;;;;;;;21.52;16.30;;;;;;;13.46;82.00;101872.88;11218284;26;20362;-76
2024/04/12 04:15:25;;;;;;;23.73;16.65;;;;;;;13.45;82.56;101878.38;11231340;26;20015;-76
2024/04/12 04:20:27;;;;;;;21.52;14.60;;;;;;;12.90;86.32;101883.00;11232027;26;20455;-76
2024/04/12 04:25:31;;;;;;;24.75;16.70;;;;;;;13.40;83.22;101880.53;11231620;26;20453;-76
2024/04/12 04:30:35;;;;;;;26.60;16.50;;;;;;;13.55;82.27;101886.69;11222734;26;20033;-76
2024/04/12 04:35:37;;;;;;;26.80;16.23;;;;;;;13.32;84.01;101877.47;11255641;26;20010;-76
2024/04/12 04:40:40;;;;;;;23.33;13.25;;;;;;;13.43;83.01;101883.88;11232894;26;20686;-76
2024/04/12 04:45:48;;;;;;;21.98;12.75;;;;;;;13.16;85.17;101897.41;11242553;26;20009;-76
2024/04/12 04:50:49;;;;;;;21.13;12.13;;;;;;;13.09;85.05;101893.41;11230508;26;20007;-76
2024/04/12 04:55:51;;;;;;;19.65;11.55;;;;;;;13.26;84.23;101890.41;11232658;26;20000;-76
2024/04/12 05:00:58;;;;;;;13.23;8.75;;;;;;;13.16;84.76;101902.78;11231702;26;20077;-77
2024/04/12 05:06:05;;;;;;;21.58;10.30;;;;;;;13.26;83.99;101886.84;11234199;26;20007;-78
2024/04/12 05:11:07;;;;;;;10.52;5.63;;;;;;;13.08;84.70;101886.25;11208480;26;20055;-77
2024/04/12 05:16:15;;;;;;;14.57;7.80;;;;;;;13.43;82.66;101881.19;11255081;26;19999;-77
2024/04/12 05:21:17;;;;;;;10.60;7.03;;;;;;;13.12;85.10;101882.41;11242741;26;19999;-76
2024/04/12 05:26:20;;;;;;;8.73;5.03;;;;;;;13.00;84.85;101859.84;11236994;26;20002;-77
2024/04/12 05:31:29;;;;;;;10.63;6.65;;;;;;;13.52;82.80;101863.50;11229934;26;20076;-77
2024/04/12 05:36:36;;;;;;;10.88;6.30;;;;;;;13.29;83.46;101867.75;11239792;26;19999;-76
2024/04/12 05:41:38;;;;;;;8.88;5.57;;;;;;;13.36;83.11;101855.56;11216492;26;19999;-75
2024/04/12 05:46:40;;;;;;;10.25;6.95;;;;;;;13.77;81.58;101842.84;11223129;26;20562;-76
2024/04/12 05:51:42;;;;;;;7.93;5.97;;;;;;;13.78;80.76;101853.53;11228891;26;20038;-77
2024/04/12 05:56:48;;;;;;;8.00;5.20;;;;;;;13.47;81.86;101853.03;11244419;26;20003;-76
2024/04/12 06:01:51;;;;;;;10.02;5.15;;;;;;;13.49;81.71;101858.28;11238732;26;20477;-76
2024/04/12 06:06:54;;;;;;;10.63;5.90;;;;;;;13.55;82.75;101857.00;11236001;26;20470;-75
2024/04/12 06:11:58;;;;;;;9.60;5.18;;;;;;;13.55;82.60;101857.00;11245976;26;20079;-77
2024/04/12 06:17:06;;;;;;;7.25;5.75;;;;;;;13.64;82.14;101853.66;11244042;26;20006;-76
2024/04/12 06:22:13;;;;;;;8.77;5.28;;;;;;;13.39;83.33;101851.84;11235961;26;19999;-76
2024/04/12 06:27:17;;;;;;;8.35;5.85;;;;;;;13.20;84.60;101861.16;11238656;26;20003;-77
2024/04/12 06:32:18;;;;;;;7.72;6.13;;;;;;;13.49;83.39;101863.69;11225014;26;20004;-77
2024/04/12 06:37:23;;;;;;;8.85;6.18;;;;;;;13.76;81.52;101871.69;11249564;26;20436;-76
2024/04/12 06:42:27;;;;;;;9.43;6.38;;;;;;;13.68;82.38;101861.41;11228252;26;20018;-76
2024/04/12 06:47:30;;;;;;;9.00;6.43;;;;;;;13.94;81.09;101851.47;11212176;26;20018;-77
2024/04/12 06:52:34;;;;;;;13.18;6.30;;;;;;;13.94;80.33;101847.91;11236576;26;19999;-76
2024/04/12 06:57:36;;;;;;;9.63;6.55;;;;;;;13.57;81.93;101849.66;11267278;26;20003;-76
2024/04/12 07:02:40;;;;;;;11.40;6.38;;;;;;;13.34;84.56;101856.66;11280478;26;20003;-76
2024/04/12 07:07:42;;;;;;;10.40;7.50;;;;;;;13.43;84.33;101851.50;11260759;26;20054;-76
2024/04/12 07:12:44;;;;;;;10.88;6.60;;;;;;;13.56;82.59;101864.13;11270140;26;20043;-76
2024/04/12 07:17:47;;;;;;;10.85;7.63;;;;;;;13.73;81.65;101855.69;11247102;26;20010;-77
2024/04/12 07:22:51;;;;;;;13.23;7.35;;;;;;;13.39;84.27;101858.09;11223583;26;19998;-76
2024/04/12 07:27:53;;;;;;;9.13;6.05;;;;;;;13.24;84.90;101861.81;11237640;26;20032;-76
2024/04/12 07:32:55;;;;;;;;;;;;;;;13.61;82.84;101872.78;11224796;26;20093;-76
2024/04/12 07:37:59;;;;;;;9.33;7.47;;;;;;;13.70;82.85;101880.22;11248906;26;19936;-76
2024/04/12 07:43:08;;;;;;;11.52;8.48;;;;;;;13.65;83.83;101879.69;11211073;26;20326;-76
2024/04/12 07:48:22;;;;;;;12.63;8.30;;;;;;;13.62;83.17;101874.50;11240896;26;20026;-75
2024/04/12 07:53:34;;;;;;;12.35;6.50;;;;;;;13.16;85.15;101892.00;11231223;26;20512;-75
2024/04/12 07:58:40;;;;;;;11.43;7.47;;;;;;;13.24;85.16;101891.50;11235601;26;20014;-76
2024/04/12 08:04:05;;;;;;;9.85;7.32;;;;;;;13.10;85.95;101916.72;11244515;26;20003;-76
2024/04/12 08:09:21;;;;;;;18.92;8.02;;;;;;;13.12;87.71;101900.44;11215937;26;20358;-77
2024/04/12 08:14:26;;;;;;;14.88;7.93;;;;;;;13.33;86.03;101888.19;11200285;26;20019;-76
2024/04/12 08:19:45;;;;;;;15.20;9.38;;;;;;;13.70;85.04;101893.72;11238645;26;19999;-77
2024/04/12 08:24:51;;;;;;;14.18;9.13;;;;;;;13.16;89.11;101904.63;11243015;26;20015;-77
2024/04/12 08:29:57;;;;;;;20.35;9.88;;;;;;;13.26;88.82;101927.34;11233506;26;20015;-76
2024/04/12 08:35:06;;;;;;;20.98;10.35;;;;;;;13.60;87.33;101898.94;11222394;26;20092;-76
2024/04/12 08:40:09;;;;;;;18.30;10.82;;;;;;;13.32;89.90;101908.03;11243509;26;20319;-76
2024/04/12 08:45:14;;;;;;;9.95;6.28;;;;;;;12.94;92.40;101910.63;11231424;26;20461;-76
2024/04/12 08:50:23;;;;;;;16.23;9.02;;;;;;;13.46;89.28;101902.56;11255609;26;20508;-76
2024/04/12 08:55:28;;;;;;;8.40;5.50;;;;;;;13.07;91.13;101900.75;11237532;26;19999;-76
2024/04/12 09:00:34;;;;;;;14.18;8.00;;;;;;;13.87;86.53;101892.53;11279624;26;20046;-76
2024/04/12 09:05:42;;;;;;;11.50;7.05;;;;;;;14.22;83.38;101887.28;11247004;26;20370;-76
2024/04/12 09:10:45;;;;;;;13.25;9.43;;;;;;;14.30;82.41;101897.56;11241377;26;20015;-76
2024/04/12 09:15:50;;;;;;;12.32;8.75;;;;;;;14.37;83.01;101901.50;11223811;26;20007;-76
2024/04/12 09:21:05;;;;;;;13.30;9.48;;;;;;;14.20;84.15;101891.06;11234767;26;19998;-77
2024/04/12 09:26:24;;;;;;;14.18;9.27;;;;;;;13.61;88.44;101897.09;11238987;26;20354;-77
2024/04/12 09:42:14;;;;;;;15.32;10.55;;;;;;;15.05;80.49;101860.34;11251487;26;20006;-76
2024/04/12 10:40:58;;;;;;;16.27;9.00;;;;;;;15.12;81.50;101878.84;11266350;26;19998;-76
2024/04/12 10:46:00;;;;;;;16.25;10.10;;;;;;;15.33;80.20;101876.28;11262804;26;20650;-76
2024/04/12 10:51:04;;;;;;;14.35;9.57;;;;;;;15.57;80.13;101869.00;11265377;26;20003;-76
2024/04/12 10:56:11;;;;;;;15.60;10.57;;;;;;;16.01;77.18;101861.88;11294875;26;20476;-77
2024/04/12 11:01:14;;;;;;;13.63;9.45;;;;;;;15.80;78.16;101863.63;11265349;26;20330;-76
2024/04/12 11:06:18;;;;;;;;;;;;;;;16.00;77.81;101853.88;11268982;26;20022;-76
2024/04/12 11:11:26;;;;;;;16.42;12.02;;;;;;;15.57;79.35;101865.44;11266886;26;19939;-77
2024/04/12 11:32:33;;;;;;;19.33;11.02;;;;;;;16.40;75.38;101826.22;11265452;26;20054;-76
2024/04/12 11:37:40;;;;;;;16.02;11.13;;;;;;;17.00;74.12;101820.19;11260602;26;20338;-76
2024/04/12 11:42:46;;;;;;;15.50;10.80;;;;;;;16.93;73.15;101815.41;11269133;26;20003;-76
2024/04/12 11:47:48;;;;;;;16.05;11.88;;;;;;;17.73;69.52;101797.59;11254505;26;20003;-77
2024/04/12 11:52:54;;;;;;;16.58;12.55;;;;;;;17.11;72.06;101788.53;11271595;26;19998;-76
2024/04/12 11:57:58;;;;;;;16.13;12.57;;;;;;;17.53;69.83;101799.38;11277324;26;20104;-75
2024/04/12 12:03:03;;;;;;;14.65;9.60;;;;;;;17.14;72.87;101791.88;11282707;26;20457;-76
2024/04/12 12:08:06;;;;;;;11.77;9.48;;;;;;;17.44;69.79;101774.75;11281754;26;20017;-76
2024/04/12 12:13:08;;;;;;;17.67;11.48;;;;;;;17.63;68.39;101787.53;11271035;26;20004;-77
2024/04/12 12:18:10;;;;;;;20.10;13.32;;;;;;;17.64;70.32;101770.25;11284780;26;20695;-76
2024/04/12 12:23:13;;;;;;;22.50;10.52;;;;;;;17.07;71.63;101768.94;11326816;26;20022;-76
2024/04/12 12:28:15;;;;;;;15.60;11.32;;;;;;;17.37;70.91;101759.13;11298739;26;20013;-77
2024/04/12 12:33:19;;;;;;;17.20;12.10;;;;;;;17.77;69.68;101772.75;11278536;26;20015;-76
2024/04/12 12:38:24;;;;;;;18.33;13.35;;;;;;;17.29;72.59;101773.38;11292998;26;19999;-76
2024/04/12 12:43:28;;;;;;;22.52;13.60;;;;;;;17.20;70.55;101763.34;11215090;26;20003;-76
2024/04/12 12:48:30;;;;;;;19.38;14.13;;;;;;;17.43;73.18;101755.88;11227390;26;20456;-76
2024/04/12 12:53:34;;;;;;;19.15;14.05;;;;;;;18.45;67.61;101752.97;11245798;26;20019;-76
2024/04/12 12:58:40;;;;;;;18.60;13.52;;;;;;;18.59;65.00;101749.81;11275121;26;20021;-75
2024/04/12 13:03:43;;;;;;;18.20;15.25;;;;;;;18.50;68.39;101753.41;11237233;26;20908;-75
2024/04/12 13:08:46;;;;;;;19.27;16.42;;;;;;;18.26;68.30;101732.91;11273566;26;20035;-75
2024/04/12 13:13:48;;;;;;;23.38;15.88;;;;;;;18.01;67.68;101730.75;11258732;26;20372;-76
2024/04/12 13:18:52;;;;;;;20.65;15.50;;;;;;;17.27;70.53;101736.50;11199191;26;20458;-76
2024/04/12 13:23:56;;;;;;;;;;;;;;;17.63;70.74;101733.19;11204952;26;20000;-75
2024/04/12 13:28:58;;;;;;;21.15;16.95;;;;;;;17.19;72.87;101735.28;11286208;26;19924;-76
2024/04/12 13:34:00;;;;;;;15.88;11.00;;;;;;;16.55;72.68;101744.44;11286124;26;19998;-77
2024/04/12 13:39:12;;;;;;;;;;;;;;;16.67;73.58;101728.09;11300937;26;19999;-76
2024/04/12 13:44:25;;;;;;;22.13;14.53;;;;;;;17.51;70.20;101725.31;11300163;26;20011;-76
2024/04/12 13:54:50;;;;;;;17.27;12.93;;;;;;;18.88;65.18;101692.66;11293875;26;20010;-76
2024/04/12 13:59:54;;;;;;;20.15;12.07;;;;;;;18.64;64.92;101701.25;11283732;26;20075;-76
2024/04/12 14:04:55;;;;;;;17.92;12.57;;;;;;;18.42;65.50;101693.41;11276372;26;20892;-76
2024/04/12 14:09:57;;;;;;;15.85;12.75;;;;;;;18.66;64.93;101690.25;11248838;26;20004;-76
2024/04/12 14:14:59;;;;;;;15.00;12.73;;;;;;;18.29;67.36;101697.31;11260531;26;19999;-76
2024/04/12 14:20:05;;;;;;;18.20;12.35;;;;;;;17.98;67.65;101679.38;11231392;26;20003;-76
2024/04/12 14:25:08;;;;;;;14.57;11.23;;;;;;;17.91;67.68;101668.19;11208753;26;19996;-76
2024/04/12 14:30:15;;;;;;;16.98;13.80;;;;;;;18.54;64.72;101668.66;11215858;26;20014;-77
2024/04/12 14:35:22;;;;;;;17.42;12.63;;;;;;;18.89;62.99;101656.25;11234108;26;20062;-76
2024/04/12 14:40:24;;;;;;;13.05;10.40;;;;;;;18.71;63.23;101671.63;11246736;26;19999;-76
2024/04/12 14:45:26;;;;;;;12.95;10.98;;;;;;;18.56;62.99;101642.13;11260830;26;20017;-76
2024/04/12 14:50:31;;;;;;;17.27;12.27;;;;;;;19.39;60.47;101620.50;11261474;26;20473;-76
2024/04/12 14:55:36;;;;;;;13.52;12.18;;;;;;;19.60;59.80;101625.69;11262863;26;20007;-76
2024/04/12 15:00:38;;;;;;;9.73;8.68;;;;;;;18.85;59.76;101626.78;11242432;26;20011;-76
2024/04/12 15:48:26;;;;;;;14.50;10.63;;;;;;;18.88;60.34;101597.38;11220317;26;20450;-76
2024/04/12 15:53:30;;;;;;;12.55;10.00;;;;;;;18.48;61.74;101603.91;11201213;26;20102;-76
2024/04/12 16:14:37;;;;;;;14.07;9.32;;;;;;;17.67;65.15;101566.19;11292994;26;20009;-76
2024/04/12 16:19:40;;;;;;;12.70;9.38;;;;;;;17.96;64.44;101587.06;11289544;26;20006;-76
2024/04/12 16:24:43;;;;;;;10.07;8.48;;;;;;;17.69;65.27;101572.34;11283006;26;20013;-76
2024/04/12 16:29:46;;;;;;;16.80;10.48;;;;;;;17.77;65.76;101566.19;11298348;26;20331;-75
2024/04/12 16:34:57;;;;;;;15.90;10.63;;;;;;;17.94;65.49;101570.06;11291628;26;20091;-76
2024/04/12 16:39:59;;;;;;;13.38;10.70;;;;;;;17.85;65.89;101563.63;11258546;26;20018;-76
2024/04/12 16:45:01;;;;;;;;;;;;;;;18.32;63.51;101555.56;11214721;26;20019;-76
2024/04/12 16:50:04;;;;;;;12.85;9.57;;;;;;;18.04;65.44;101567.34;11227067;26;19931;-76
2024/04/12 16:55:06;;;;;;;11.98;9.40;;;;;;;17.61;65.98;101560.47;11198272;26;20000;-76
2024/04/12 17:00:08;;;;;;;14.25;10.35;;;;;;;17.66;66.19;101550.88;11203570;26;20007;-77
2024/04/12 17:05:11;;;;;;;14.00;10.93;;;;;;;17.60;66.16;101558.72;11250924;26;19999;-76
2024/04/12 17:10:13;;;;;;;14.55;10.18;;;;;;;17.84;65.03;101550.16;11284577;26;20007;-76
2024/04/12 17:15:19;;;;;;;16.00;11.23;;;;;;;17.48;66.49;101545.28;11227478;26;20346;-76
2024/04/12 17:20:21;;;;;;;11.38;7.35;;;;;;;17.67;65.13;101543.59;11266285;26;20348;-76
2024/04/12 17:25:23;;;;;;;13.65;9.50;;;;;;;17.88;64.60;101536.16;11272596;26;20473;-76
2024/04/12 17:30:25;;;;;;;14.50;9.75;;;;;;;17.80;64.89;101535.13;11254811;26;20008;-76
2024/04/12 17:35:27;;;;;;;11.85;9.02;;;;;;;17.82;64.49;101528.53;11244502;26;20015;-75
2024/04/12 17:40:28;;;;;;;11.13;8.48;;;;;;;17.93;64.21;101531.09;11240287;26;20010;-76
2024/04/12 17:45:30;;;;;;;12.52;9.05;;;;;;;17.85;64.77;101513.81;11223560;26;20355;-76
2024/04/12 17:50:32;;;;;;;10.15;7.85;;;;;;;17.83;64.69;101518.56;11210009;26;20497;-76
2024/04/12 17:55:35;;;;;;;17.45;7.93;;;;;;;17.76;64.81;101517.41;11225635;26;19998;-77
2024/04/12 18:00:36;;;;;;;10.40;7.10;;;;;;;17.83;64.82;101519.41;11290543;26;20018;-77
2024/04/12 18:05:38;;;;;;;11.40;6.53;;;;;;;17.90;64.96;101522.41;11285798;26;19998;-77
2024/04/12 18:10:40;;;;;;;12.27;6.45;;;;;;;17.55;67.52;101515.72;11306573;26;20002;-77
2024/04/12 18:15:42;;;;;;;9.82;5.50;;;;;;;17.36;69.65;101521.09;11293075;26;19999;-76
2024/04/12 18:20:44;;;;;;;11.45;6.28;;;;;;;17.34;70.35;101515.84;11283768;26;20010;-75
2024/04/12 18:25:56;;;;;;;7.68;5.38;;;;;;;17.13;71.41;101515.94;11273570;26;20715;-76
2024/04/12 18:31:04;;;;;;;8.13;4.97;;;;;;;16.95;72.87;101510.31;11294192;26;20296;-76
2024/04/12 18:36:19;;;;;;;8.30;5.38;;;;;;;17.10;72.39;101516.19;11289428;26;19994;-76
2024/04/12 18:46:42;;;;;;;6.68;5.60;;;;;;;16.97;73.27;101515.56;11295022;26;19999;-76
2024/04/12 18:51:44;;;;;;;9.18;5.10;;;;;;;16.94;73.26;101522.13;11295375;26;20530;-77
2024/04/12 18:56:46;;;;;;;7.50;5.63;;;;;;;16.85;73.62;101522.97;11284929;26;20559;-77
2024/04/12 19:01:48;;;;;;;16.15;6.28;;;;;;;16.83;73.87;101526.81;11254732;26;20006;-76
2024/04/12 19:06:50;;;;;;;8.43;5.80;;;;;;;16.84;73.86;101526.69;11290714;26;20437;-76
2024/04/12 19:11:52;;;;;;;9.13;6.03;;;;;;;16.75;74.39;101519.38;11239952;26;20004;-76
2024/04/12 19:16:58;;;;;;;7.15;5.20;;;;;;;16.71;74.63;101518.78;11275428;26;20030;-75
2024/04/12 19:22:00;;;;;;;7.85;5.75;;;;;;;16.51;75.54;101520.56;11217489;26;20074;-75
2024/04/12 19:27:02;;;;;;;9.70;6.03;;;;;;;16.66;74.87;101512.06;11199633;26;20007;-75
2024/04/12 19:32:05;;;;;;;11.13;6.65;;;;;;;16.45;75.69;101517.53;11231795;26;20014;-75
2024/04/12 19:37:07;;;;;;;9.23;6.20;;;;;;;16.45;75.97;101514.81;11237669;26;20018;-75
2024/04/12 19:42:09;;;;;;;10.75;7.10;;;;;;;16.56;75.45;101528.28;11229776;26;20013;-75
2024/04/12 19:47:10;;;;;;;14.98;7.55;;;;;;;16.45;75.62;101523.81;11227382;26;20032;-75
2024/04/12 19:52:12;;;;;;;16.92;8.13;;;;;;;16.37;75.70;101529.03;11209098;26;20003;-74
2024/04/12 19:57:15;;;;;;;10.88;6.80;;;;;;;16.30;76.33;101536.88;11198886;26;20003;-74
2024/04/12 20:02:21;;;;;;;9.77;6.80;;;;;;;16.65;74.87;101532.91;11214530;26;20017;-74
2024/04/12 20:07:23;;;;;;;10.27;7.07;;;;;;;16.53;75.40;101532.13;11261367;26;20017;-74
2024/04/12 20:12:24;;;;;;;10.13;7.50;;;;;;;16.56;74.70;101531.00;11261450;26;19999;-77
2024/04/12 20:17:26;;;;;;;14.55;7.85;;;;;;;16.39;75.70;101529.78;11234882;26;20003;-77
2024/04/12 20:22:28;;;;;;;9.73;7.00;;;;;;;16.48;75.53;101528.97;11259307;26;20014;-77
2024/04/12 20:27:31;;;;;;;8.82;6.95;;;;;;;16.47;75.48;101534.53;11269130;26;20228;-77
2024/04/12 20:32:36;;;;;;;12.30;7.32;;;;;;;16.23;76.63;101524.78;11257205;26;20003;-75
2024/04/12 20:37:39;;;;;;;13.38;8.18;;;;;;;16.32;76.10;101532.19;11230561;26;20092;-77
2024/04/12 20:42:40;;;;;;;9.52;6.50;;;;;;;16.12;76.92;101520.31;11234009;26;20799;-77
2024/04/12 20:47:42;;;;;;;9.95;7.65;;;;;;;16.30;76.45;101527.88;11252333;26;20033;-77
2024/04/12 20:52:44;;;;;;;10.98;7.75;;;;;;;16.26;76.33;101523.69;11265181;26;20899;-77
2024/04/12 20:57:46;;;;;;;9.15;7.32;;;;;;;16.19;76.67;101527.91;11275601;26;20003;-77
2024/04/12 21:02:48;;;;;;;13.18;7.55;;;;;;;16.05;77.41;101527.25;11219433;26;20003;-77
2024/04/12 21:07:50;;;;;;;13.48;7.05;;;;;;;16.06;77.22;101523.56;11266694;26;20006;-77
2024/04/12 21:12:52;;;;;;;10.73;7.63;;;;;;;16.09;77.23;101514.28;11267081;26;20007;-77
2024/04/12 21:17:53;;;;;;;12.05;8.23;;;;;;;16.00;77.59;101509.69;11232375;26;19999;-77
2024/04/12 21:22:55;;;;;;;12.93;7.50;;;;;;;16.07;77.15;101518.97;11263533;26;19999;-77
2024/04/12 21:27:57;;;;;;;11.60;7.20;;;;;;;16.05;77.34;101516.44;11275814;26;19995;-77
2024/04/12 21:33:00;;;;;;;;;;;;;;;15.99;77.76;101507.94;11266505;26;19999;-77
2024/04/12 21:38:02;;;;;;;11.20;7.00;;;;;;;15.98;77.96;101511.66;11255134;26;20391;-77
2024/04/12 21:43:03;;;;;;;11.85;6.57;;;;;;;15.95;77.72;101495.66;11241156;26;19999;-77
2024/04/12 21:48:08;;;;;;;11.40;7.37;;;;;;;15.89;78.05;101510.59;11230640;26;20004;-77
2024/04/12 21:53:10;;;;;;;10.82;7.55;;;;;;;15.92;78.03;101505.78;11216255;26;20716;-77
2024/04/12 21:58:12;;;;;;;10.57;7.28;;;;;;;15.90;78.26;101513.16;11204098;26;20011;-77
2024/04/12 22:03:14;;;;;;;12.02;7.50;;;;;;;15.87;78.55;101515.28;11210758;26;20011;-77
2024/04/12 22:08:17;;;;;;;13.35;7.35;;;;;;;15.84;78.68;101508.28;11223733;26;20435;-77
2024/04/12 22:13:20;;;;;;;10.23;7.07;;;;;;;15.75;79.55;101510.94;11232807;26;20014;-77
2024/04/12 22:18:27;;;;;;;12.32;8.20;;;;;;;15.68;80.02;101513.28;11229000;26;20591;-76
2024/04/12 22:23:29;;;;;;;10.63;7.93;;;;;;;15.58;80.42;101512.38;11213556;26;20480;-77
2024/04/12 22:28:31;;;;;;;14.93;8.55;;;;;;;15.61;80.47;101515.66;11200006;26;20012;-77
2024/04/12 22:33:33;;;;;;;12.90;8.23;;;;;;;15.54;80.82;101516.31;11263054;26;20539;-77
2024/04/12 22:38:35;;;;;;;;;;;;;;;15.45;81.58;101507.97;11250466;26;20307;-77
2024/04/12 22:43:37;;;;;;;10.87;8.10;;;;;;;15.45;81.54;101513.41;11232910;26;19932;-77
2024/04/12 22:48:39;;;;;;;12.43;8.33;;;;;;;15.44;81.71;101498.16;11243856;26;20539;-77
2024/04/12 22:53:42;;;;;;;12.88;8.25;;;;;;;15.23;83.29;101506.19;11255524;26;20232;-77
2024/04/12 22:58:44;;;;;;;18.20;8.77;;;;;;;15.38;82.20;101512.19;11268445;26;20011;-77
2024/04/12 23:03:45;;;;;;;12.25;8.02;;;;;;;15.17;83.48;101514.81;11244815;26;20003;-77
2024/04/12 23:08:47;;;;;;;10.00;8.65;;;;;;;15.23;83.02;101503.47;11218683;26;20007;-77
2024/04/12 23:13:49;;;;;;;14.90;8.45;;;;;;;15.14;83.82;101512.38;11228626;26;19999;-77
2024/04/12 23:18:52;;;;;;;15.80;9.15;;;;;;;15.10;84.27;101519.00;11233340;26;20014;-77
2024/04/12 23:23:54;;;;;;;13.90;8.70;;;;;;;15.09;84.31;101509.16;11225898;26;20463;-77
2024/04/12 23:28:56;;;;;;;20.08;8.68;;;;;;;14.96;84.99;101505.75;11201368;26;20454;-77
2024/04/12 23:33:58;;;;;;;13.70;9.63;;;;;;;15.04;84.78;101500.56;11203917;26;20003;-77
2024/04/12 23:38:59;;;;;;;12.50;9.48;;;;;;;14.74;87.38;101499.38;11217601;26;20014;-77
2024/04/12 23:44:01;;;;;;;15.43;9.60;;;;;;;14.88;86.13;101502.81;11227990;26;20062;-77
2024/04/12 23:49:04;;;;;;;19.30;9.02;;;;;;;14.88;85.80;101500.97;11238567;26;19995;-77
2024/04/12 23:54:06;;;;;;;17.50;10.15;;;;;;;14.69;87.25;101498.03;11252738;26;20003;-77
2024/04/12 23:59:08;;;;;;;16.63;9.43;;;;;;;14.81;86.52;101491.66;11237224;26;19999;-77
